Time;durP1;ratioP1;P1;durP2;ratioP2;P2;SDS_P1;SDS_P2;PMS_P1;PMS_P2;Temp;Humidity;BMP_temperature;BMP_pressure;BME280_temperature;BME280_humidity;BME280_pressure;Samples;Min_cycle;Max_cycle;Signal;HPM_P1;HPM_P2
2022/06/17 00:01:51;;;;;;;24.85;22.70;;;10.40;99.90;;;;;;5001008;28;20046;-74
2022/06/17 00:04:18;;;;;;;24.35;22.45;;;10.60;99.90;;;;;;5001628;28;20046;-74
2022/06/17 00:06:50;;;;;;;24.00;22.13;;;10.50;99.90;;;;;;5012986;28;20046;-73
2022/06/17 00:09:19;;;;;;;22.30;20.65;;;10.50;99.90;;;;;;5005030;28;20103;-74
2022/06/17 00:11:46;;;;;;;24.23;22.02;;;10.40;99.90;;;;;;5017682;28;20632;-74
2022/06/17 00:14:16;;;;;;;22.77;21.08;;;10.50;99.90;;;;;;5029092;28;20049;-73
2022/06/17 00:16:43;;;;;;;22.30;20.55;;;10.50;99.90;;;;;;5004655;28;20111;-73
2022/06/17 00:19:11;;;;;;;22.65;20.90;;;10.40;99.90;;;;;;5026485;28;20066;-73
2022/06/17 00:21:42;;;;;;;23.35;21.60;;;10.40;99.90;;;;;;5022686;28;20045;-74
2022/06/17 00:24:30;;;;;;;22.20;20.38;;;10.30;99.90;;;;;;5007570;28;20088;-73
2022/06/17 00:26:57;;;;;;;23.40;21.17;;;10.20;99.90;;;;;;5025221;28;20042;-73
2022/06/17 00:29:28;;;;;;;22.10;20.55;;;10.20;99.90;;;;;;5024931;28;20084;-75
2022/06/17 00:31:54;;;;;;;22.75;21.25;;;10.20;99.90;;;;;;5024377;28;20061;-74
2022/06/17 00:34:23;;;;;;;24.27;22.23;;;10.10;99.90;;;;;;5025493;28;20103;-72
2022/06/17 00:36:54;;;;;;;23.95;21.83;;;10.10;99.90;;;;;;5023361;28;20072;-73
2022/06/17 00:39:27;;;;;;;25.08;23.08;;;10.10;99.90;;;;;;5032177;28;20477;-73
2022/06/17 00:41:59;;;;;;;25.58;23.30;;;10.00;99.90;;;;;;5043773;28;20064;-73
2022/06/17 00:44:29;;;;;;;25.00;23.20;;;9.90;99.90;;;;;;5026500;28;20087;-74
2022/06/17 00:47:20;;;;;;;24.55;22.90;;;9.90;99.90;;;;;;5042400;28;20774;-73
2022/06/17 00:49:52;;;;;;;24.80;23.17;;;9.90;99.90;;;;;;5024581;28;20041;-73
2022/06/17 00:52:24;;;;;;;24.38;22.73;;;9.80;99.90;;;;;;5023122;28;20057;-75
2022/06/17 00:54:56;;;;;;;25.13;23.17;;;9.80;99.90;;;;;;5009080;28;20085;-75
2022/06/17 00:57:33;;;;;;;25.50;23.70;;;9.90;99.90;;;;;;5006128;28;20057;-75
2022/06/17 01:00:19;;;;;;;23.90;22.00;;;9.90;99.90;;;;;;5024354;28;20057;-74
2022/06/17 01:02:52;;;;;;;23.80;22.15;;;10.00;99.90;;;;;;5022878;28;20061;-74
2022/06/17 01:05:24;;;;;;;24.23;22.27;;;9.90;99.90;;;;;;5023804;28;20107;-74
2022/06/17 01:08:02;;;;;;;23.05;21.13;;;9.80;99.90;;;;;;5023914;28;20037;-73
2022/06/17 01:10:30;;;;;;;24.52;22.63;;;9.70;99.90;;;;;;5023871;28;20163;-74
2022/06/17 01:13:04;;;;;;;23.05;21.42;;;9.70;99.90;;;;;;5007237;28;20096;-74
2022/06/17 01:15:37;;;;;;;23.23;21.27;;;9.70;99.90;;;;;;5022901;28;20427;-74
2022/06/17 01:18:05;;;;;;;23.33;21.52;;;9.80;99.90;;;;;;5023609;28;21532;-74
2022/06/17 01:20:33;;;;;;;23.23;21.35;;;9.70;99.90;;;;;;5022998;28;20511;-74
2022/06/17 01:23:06;;;;;;;23.02;21.42;;;9.70;99.90;;;;;;5005689;28;20047;-73
2022/06/17 01:25:43;;;;;;;22.73;21.05;;;9.50;99.90;;;;;;5022990;28;20041;-74
2022/06/17 01:28:13;;;;;;;23.80;22.05;;;9.40;99.90;;;;;;5006017;28;20061;-73
2022/06/17 01:30:44;;;;;;;24.58;22.88;;;9.50;99.90;;;;;;5018136;28;20332;-74
2022/06/17 01:33:23;;;;;;;23.40;21.70;;;9.30;99.90;;;;;;5022715;28;20060;-73
2022/06/17 01:35:56;;;;;;;24.48;22.58;;;9.40;99.90;;;;;;5022692;28;20076;-73
2022/06/17 01:38:25;;;;;;;23.00;21.50;;;9.40;99.90;;;;;;5007156;28;20099;-73
2022/06/17 01:40:55;;;;;;;23.67;22.00;;;9.30;99.90;;;;;;5010241;28;20068;-73
2022/06/17 01:43:31;;;;;;;24.73;22.80;;;9.30;99.90;;;;;;5005188;28;20597;-74
2022/06/17 01:46:04;;;;;;;;;;;9.20;99.90;;;;;;5023629;28;20253;-74
2022/06/17 01:48:35;;;;;;;23.48;21.77;;;9.10;99.90;;;;;;5023457;28;19921;-73
2022/06/17 01:51:06;;;;;;;23.50;21.63;;;9.10;99.90;;;;;;5021894;28;20116;-74
2022/06/17 01:53:36;;;;;;;23.10;21.20;;;9.10;99.90;;;;;;5020647;28;20056;-73
2022/06/17 01:56:12;;;;;;;23.20;21.52;;;9.10;99.90;;;;;;5017613;28;20052;-74
2022/06/17 01:58:49;;;;;;;22.33;20.65;;;9.00;99.90;;;;;;5021752;28;20111;-71
2022/06/17 02:01:19;;;;;;;22.48;20.98;;;9.10;99.90;;;;;;5023287;28;20049;-75
2022/06/17 02:03:54;;;;;;;22.75;21.00;;;9.30;99.90;;;;;;5023086;28;20092;-73
2022/06/17 02:06:23;;;;;;;;;;;9.40;99.90;;;;;;5023018;28;20103;-74
2022/06/17 02:08:51;;;;;;;21.33;19.90;;;9.30;99.90;;;;;;5022812;28;19925;-73
2022/06/17 02:11:20;;;;;;;22.25;20.30;;;9.30;99.90;;;;;;5005283;28;20515;-75
2022/06/17 02:13:52;;;;;;;22.13;20.27;;;9.30;99.90;;;;;;5007003;28;20054;-73
2022/06/17 02:16:27;;;;;;;;;;;9.20;99.90;;;;;;5023311;28;20045;-73
2022/06/17 02:19:13;;;;;;;22.05;20.38;;;9.30;99.90;;;;;;5024558;28;19928;-73
2022/06/17 02:21:50;;;;;;;21.85;20.35;;;9.20;99.90;;;;;;5020797;28;20099;-72
2022/06/17 02:24:18;;;;;;;22.33;20.75;;;9.20;99.90;;;;;;5032938;28;20110;-74
2022/06/17 02:26:45;;;;;;;21.98;20.20;;;9.10;99.90;;;;;;5021750;28;20119;-74
2022/06/17 02:29:14;;;;;;;22.73;20.92;;;8.90;99.90;;;;;;5022887;28;20447;-75
2022/06/17 02:31:43;;;;;;;23.60;21.55;;;8.80;99.90;;;;;;5020454;28;20045;-73
2022/06/17 02:34:14;;;;;;;22.63;21.02;;;8.70;99.90;;;;;;5020155;28;20143;-73
2022/06/17 02:37:06;;;;;;;23.17;21.48;;;8.70;99.90;;;;;;5003596;28;20045;-74
2022/06/17 02:39:35;;;;;;;22.73;20.83;;;8.90;99.90;;;;;;5021391;28;20049;-74
2022/06/17 02:42:02;;;;;;;22.48;20.88;;;8.90;99.90;;;;;;5020572;28;20049;-73
2022/06/17 02:44:39;;;;;;;22.48;20.65;;;9.00;99.90;;;;;;5020747;28;20091;-75
2022/06/17 02:47:06;;;;;;;21.73;19.77;;;8.90;99.90;;;;;;5020630;28;20053;-73
2022/06/17 02:49:35;;;;;;;21.73;20.33;;;9.00;99.90;;;;;;5022089;28;20437;-73
2022/06/17 02:52:16;;;;;;;21.67;20.27;;;8.90;99.90;;;;;;5020871;28;20081;-74
2022/06/17 02:54:55;;;;;;;22.70;20.77;;;9.00;99.90;;;;;;5020502;28;20132;-74
2022/06/17 02:57:25;;;;;;;23.35;21.50;;;8.90;99.90;;;;;;5021367;28;20507;-74
2022/06/17 03:00:06;;;;;;;23.58;21.77;;;8.90;99.90;;;;;;5005898;28;20046;-73
2022/06/17 03:02:37;;;;;;;23.45;21.50;;;9.00;99.90;;;;;;5019048;28;20295;-74
2022/06/17 03:05:14;;;;;;;22.23;20.67;;;8.90;99.90;;;;;;5021052;28;20167;-73
2022/06/17 03:07:43;;;;;;;22.17;20.33;;;8.70;99.90;;;;;;5021259;28;20049;-72
2022/06/17 03:10:33;;;;;;;22.60;20.88;;;8.70;99.90;;;;;;5006648;28;20366;-73
2022/06/17 03:13:20;;;;;;;22.20;20.50;;;8.60;99.90;;;;;;5020508;28;20112;-74
2022/06/17 03:15:49;;;;;;;21.85;20.15;;;8.50;99.90;;;;;;5019689;28;20055;-73
2022/06/17 03:18:16;;;;;;;21.98;20.33;;;8.50;99.90;;;;;;5004394;28;20143;-74
2022/06/17 03:20:47;;;;;;;23.35;21.50;;;8.50;99.90;;;;;;5021032;28;20050;-75
2022/06/17 03:23:50;;;;;;;23.63;22.00;;;8.50;99.90;;;;;;5017943;28;20384;-72
2022/06/17 03:26:24;;;;;;;24.02;22.10;;;8.50;99.90;;;;;;5009762;28;20041;-74
2022/06/17 03:28:51;;;;;;;23.10;21.42;;;8.70;99.90;;;;;;4984812;28;20042;-74
2022/06/17 03:31:30;;;;;;;22.88;21.30;;;8.60;99.90;;;;;;5006372;28;20033;-73
2022/06/17 03:34:15;;;;;;;24.17;22.15;;;8.50;99.90;;;;;;5020740;28;20057;-75
2022/06/17 03:36:53;;;;;;;23.37;21.70;;;8.50;99.90;;;;;;5020449;28;20504;-74
2022/06/17 03:39:33;;;;;;;23.35;21.65;;;8.60;99.90;;;;;;5015447;28;20303;-74
2022/06/17 03:42:10;;;;;;;23.25;21.50;;;8.70;99.90;;;;;;5023761;28;20345;-75
2022/06/17 03:44:50;;;;;;;23.73;21.98;;;8.60;99.90;;;;;;5024915;28;20045;-73
2022/06/17 03:47:25;;;;;;;23.05;21.30;;;8.70;99.90;;;;;;5016875;28;20504;-73
2022/06/17 03:50:00;;;;;;;21.92;20.42;;;8.70;99.90;;;;;;5004026;28;20140;-74
2022/06/17 03:52:43;;;;;;;21.90;20.42;;;8.70;99.90;;;;;;5003611;28;20037;-72
2022/06/17 03:55:17;;;;;;;22.73;21.02;;;8.90;99.90;;;;;;5020781;28;20076;-74
2022/06/17 03:57:47;;;;;;;21.33;19.88;;;8.80;99.90;;;;;;5021552;28;20511;-73
2022/06/17 04:00:27;;;;;;;22.60;20.77;;;8.70;99.90;;;;;;5024917;28;20073;-73
2022/06/17 04:02:55;;;;;;;23.05;21.35;;;8.80;99.90;;;;;;5023056;28;20041;-72
2022/06/17 04:05:22;;;;;;;22.27;20.77;;;8.90;99.90;;;;;;5023747;28;20052;-74
2022/06/17 04:07:49;;;;;;;22.50;20.80;;;9.10;99.90;;;;;;5022513;28;20045;-73
2022/06/17 04:10:21;;;;;;;24.50;22.48;;;9.10;99.90;;;;;;5022006;28;20041;-72
2022/06/17 04:12:52;;;;;;;23.73;21.92;;;9.00;99.90;;;;;;5008574;28;20470;-72
2022/06/17 04:16:13;;;;;;;24.08;22.48;;;8.90;99.90;;;;;;5017129;28;20176;-75
2022/06/17 04:18:40;;;;;;;23.73;22.13;;;9.00;99.90;;;;;;5017153;28;20041;-73
2022/06/17 04:21:09;;;;;;;23.73;22.10;;;8.90;99.90;;;;;;5024375;28;20045;-74
2022/06/17 04:23:36;;;;;;;24.42;22.55;;;9.00;99.90;;;;;;5021915;28;20061;-73
2022/06/17 04:26:29;;;;;;;23.33;21.65;;;9.00;99.90;;;;;;5005500;28;20053;-72
2022/06/17 04:29:13;;;;;;;24.42;22.42;;;9.20;99.90;;;;;;5024409;28;20151;-74
2022/06/17 04:31:43;;;;;;;23.83;22.23;;;9.50;99.90;;;;;;5023777;28;20455;-74
2022/06/17 04:34:18;;;;;;;23.83;22.05;;;9.90;99.90;;;;;;5003535;28;20309;-74
2022/06/17 04:37:00;;;;;;;25.08;23.38;;;10.20;99.90;;;;;;5024068;28;20246;-74
2022/06/17 04:39:37;;;;;;;26.92;25.13;;;10.50;99.90;;;;;;5024269;28;20053;-74
2022/06/17 04:42:28;;;;;;;26.23;24.52;;;10.80;99.90;;;;;;5022609;28;20056;-71
2022/06/17 04:44:55;;;;;;;26.67;24.60;;;10.80;99.90;;;;;;5029221;28;20149;-74
2022/06/17 04:47:23;;;;;;;26.00;24.02;;;10.70;99.90;;;;;;5023018;28;20050;-74
2022/06/17 04:50:01;;;;;;;25.13;23.30;;;10.80;99.90;;;;;;5023684;28;20041;-74
2022/06/17 04:52:42;;;;;;;26.48;24.52;;;11.00;99.90;;;;;;5020636;28;20045;-75
2022/06/17 04:55:28;;;;;;;26.83;25.10;;;11.70;99.90;;;;;;5020124;28;20049;-73
2022/06/17 04:58:13;;;;;;;27.10;25.40;;;12.20;99.90;;;;;;5018539;28;20045;-73
2022/06/17 05:00:45;;;;;;;27.58;25.65;;;12.80;99.90;;;;;;5021962;28;20041;-73
2022/06/17 05:03:12;;;;;;;27.27;25.58;;;13.50;99.90;;;;;;5021540;28;20072;-73
2022/06/17 05:06:00;;;;;;;27.33;25.50;;;14.00;99.90;;;;;;5022516;28;20182;-72
2022/06/17 05:08:45;;;;;;;27.65;25.92;;;14.60;99.90;;;;;;5021937;28;20068;-74
2022/06/17 05:11:41;;;;;;;27.85;26.05;;;14.90;99.90;;;;;;5021970;28;20050;-74
2022/06/17 05:14:09;;;;;;;;;;;14.90;99.90;;;;;;5021044;28;20045;-74
2022/06/17 05:16:37;;;;;;;27.58;25.67;;;14.90;99.90;;;;;;5021900;28;20493;-74
2022/06/17 05:19:04;;;;;;;27.63;25.92;;;15.00;99.90;;;;;;5022298;28;20045;-75
2022/06/17 05:21:32;;;;;;;28.23;26.50;;;15.20;99.90;;;;;;5020084;28;20045;-72
2022/06/17 05:24:10;;;;;;;27.67;25.88;;;15.60;99.90;;;;;;5005706;28;20038;-74
2022/06/17 05:26:37;;;;;;;28.00;25.90;;;15.90;99.90;;;;;;5005023;28;20542;-74
2022/06/17 05:29:07;;;;;;;26.52;24.75;;;16.00;99.90;;;;;;5005630;28;20041;-74
2022/06/17 05:31:36;;;;;;;25.67;24.08;;;16.10;99.90;;;;;;5005823;28;20101;-74
2022/06/17 05:34:05;;;;;;;26.70;24.98;;;16.20;99.90;;;;;;5002687;28;20229;-74
2022/06/17 05:36:32;;;;;;;26.90;25.10;;;16.50;99.90;;;;;;5001652;28;20461;-73
2022/06/17 05:38:59;;;;;;;27.95;25.58;;;16.70;99.90;;;;;;5026345;28;20071;-74
2022/06/17 05:41:26;;;;;;;27.05;25.23;;;17.10;99.90;;;;;;5041251;28;20053;-72
2022/06/17 05:43:54;;;;;;;26.92;25.33;;;17.60;99.90;;;;;;5035183;28;20540;-74
2022/06/17 05:46:47;;;;;;;26.40;24.70;;;17.80;99.90;;;;;;5015160;28;20045;-74
2022/06/17 05:49:34;;;;;;;26.13;24.42;;;18.20;99.90;;;;;;5001752;28;20144;-74
2022/06/17 05:52:33;;;;;;;26.08;24.17;;;18.50;99.90;;;;;;4977803;28;20408;-75
2022/06/17 05:55:09;;;;;;;25.90;24.35;;;19.20;99.90;;;;;;5015052;28;20095;-72
2022/06/17 05:57:36;;;;;;;26.73;24.48;;;19.60;99.90;;;;;;5000441;28;20062;-74
2022/06/17 06:00:03;;;;;;;26.73;25.13;;;19.90;99.90;;;;;;5010021;28;20520;-73
2022/06/17 06:02:38;;;;;;;26.83;24.85;;;20.00;99.90;;;;;;5018181;28;20299;-75
2022/06/17 06:05:14;;;;;;;26.23;24.70;;;20.10;99.90;;;;;;5020023;28;20111;-73
2022/06/17 06:07:41;;;;;;;26.15;24.45;;;20.30;99.90;;;;;;5011633;28;20096;-74
2022/06/17 06:10:09;;;;;;;25.40;23.95;;;20.60;99.90;;;;;;5000411;28;20077;-73
2022/06/17 06:12:57;;;;;;;26.35;24.73;;;20.80;99.90;;;;;;5001627;28;20054;-76
2022/06/17 06:15:31;;;;;;;25.33;23.73;;;20.50;99.90;;;;;;4999936;28;20115;-75
2022/06/17 06:18:20;;;;;;;26.33;24.58;;;20.60;99.90;;;;;;5001012;28;20089;-75
2022/06/17 06:20:48;;;;;;;26.10;24.25;;;20.50;99.90;;;;;;5002706;28;20053;-73
2022/06/17 06:23:21;;;;;;;26.37;24.50;;;20.40;99.90;;;;;;5020004;28;20064;-74
2022/06/17 06:25:48;;;;;;;26.33;24.42;;;20.50;99.90;;;;;;5019590;28;20269;-74
2022/06/17 06:28:19;;;;;;;26.08;24.20;;;20.80;99.90;;;;;;5021104;28;20053;-76
2022/06/17 06:31:06;;;;;;;26.20;24.38;;;20.90;99.90;;;;;;5020131;28;20061;-75
2022/06/17 06:33:34;;;;;;;25.52;23.90;;;21.10;99.90;;;;;;5004092;28;20144;-75
2022/06/17 06:36:00;;;;;;;25.95;24.25;;;21.30;99.90;;;;;;5028327;28;20046;-75
2022/06/17 06:38:27;;;;;;;26.02;24.42;;;21.60;99.90;;;;;;5000354;28;20054;-75
2022/06/17 06:40:54;;;;;;;26.27;24.80;;;21.80;99.90;;;;;;5017851;28;20440;-74
2022/06/17 06:43:23;;;;;;;26.90;25.10;;;21.70;99.90;;;;;;5003184;28;20048;-75
2022/06/17 06:46:31;;;;;;;27.38;25.77;;;21.70;99.90;;;;;;4987320;28;20128;-74
2022/06/17 06:48:58;;;;;;;27.10;25.17;;;21.70;99.90;;;;;;4983400;28;20542;-75
2022/06/17 06:51:25;;;;;;;26.63;25.05;;;21.90;99.90;;;;;;5010688;28;20125;-76
2022/06/17 06:53:53;;;;;;;26.70;25.10;;;21.90;99.90;;;;;;5039650;28;20063;-76
2022/06/17 06:56:21;;;;;;;27.70;25.88;;;22.20;99.90;;;;;;5039778;28;20076;-75
2022/06/17 06:58:49;;;;;;;27.25;25.60;;;22.30;99.90;;;;;;5039432;28;20102;-75
2022/06/17 07:01:16;;;;;;;27.20;25.50;;;22.50;99.90;;;;;;5040353;28;20443;-75
2022/06/17 07:03:43;;;;;;;26.58;25.08;;;22.30;99.90;;;;;;5041689;28;20558;-74
2022/06/17 07:06:11;;;;;;;27.23;25.20;;;22.30;99.90;;;;;;5039818;28;20045;-74
2022/06/17 07:08:37;;;;;;;27.83;26.20;;;22.30;99.90;;;;;;5041033;28;20045;-75
2022/06/17 07:11:06;;;;;;;28.13;26.48;;;22.50;99.90;;;;;;5039801;28;20099;-76
2022/06/17 07:13:41;;;;;;;27.48;26.08;;;22.60;99.90;;;;;;5041362;28;20045;-74
2022/06/17 07:16:10;;;;;;;28.67;27.10;;;23.10;99.90;;;;;;5042123;28;20126;-76
2022/06/17 07:18:38;;;;;;;28.55;26.67;;;23.20;99.90;;;;;;5041680;28;20102;-76
2022/06/17 07:21:09;;;;;;;29.00;27.00;;;23.10;99.90;;;;;;5039645;28;20139;-74
2022/06/17 07:23:39;;;;;;;30.05;27.85;;;23.20;99.90;;;;;;5040894;28;20061;-75
2022/06/17 07:26:26;;;;;;;28.73;26.92;;;23.40;99.90;;;;;;5041296;28;20045;-74
2022/06/17 07:28:54;;;;;;;27.77;26.10;;;23.40;99.90;;;;;;5040626;28;20053;-75
2022/06/17 07:31:22;;;;;;;29.63;27.92;;;23.50;99.90;;;;;;5039935;28;20037;-74
2022/06/17 07:33:50;;;;;;;31.15;29.35;;;23.70;99.90;;;;;;5038758;28;20055;-75
2022/06/17 07:41:53;;;;;;;28.88;27.13;;;23.80;99.90;;;;;;5040876;28;20136;-75
2022/06/17 07:44:20;;;;;;;30.17;27.95;;;23.90;99.90;;;;;;5039131;28;20076;-74
2022/06/17 07:46:47;;;;;;;28.55;26.80;;;24.00;99.90;;;;;;5041144;28;20056;-75
2022/06/17 07:49:15;;;;;;;27.73;26.08;;;23.50;99.90;;;;;;5040646;28;20103;-74
2022/06/17 07:51:41;;;;;;;26.95;25.25;;;23.80;99.90;;;;;;5022657;28;20149;-74
2022/06/17 07:54:08;;;;;;;27.63;25.83;;;24.00;99.90;;;;;;5040641;28;20049;-75
2022/06/17 07:56:35;;;;;;;28.73;26.80;;;23.80;99.90;;;;;;5039813;28;20439;-75
2022/06/17 07:59:02;;;;;;;28.58;26.85;;;23.90;99.90;;;;;;5024720;28;20474;-74
2022/06/17 08:01:29;;;;;;;27.30;25.58;;;24.10;99.90;;;;;;5049331;28;20041;-75
2022/06/17 08:03:56;;;;;;;28.55;26.55;;;23.80;99.90;;;;;;5051745;28;20080;-75
2022/06/17 08:06:23;;;;;;;28.33;26.67;;;23.70;99.90;;;;;;5050887;28;20063;-75
2022/06/17 08:08:50;;;;;;;29.65;27.73;;;23.70;99.90;;;;;;5053490;28;20094;-76
2022/06/17 08:11:16;;;;;;;28.95;27.27;;;23.60;99.90;;;;;;5059076;28;20049;-74
2022/06/17 08:13:43;;;;;;;28.15;26.50;;;23.80;99.90;;;;;;5039921;28;20041;-73
2022/06/17 08:16:12;;;;;;;28.45;26.52;;;24.00;99.90;;;;;;5041218;28;20076;-73
2022/06/17 08:18:40;;;;;;;28.13;26.42;;;24.10;99.90;;;;;;5039211;28;20045;-75
2022/06/17 08:21:09;;;;;;;28.65;26.52;;;24.20;99.90;;;;;;5039278;28;20056;-74
2022/06/17 08:23:37;;;;;;;26.77;25.15;;;24.40;99.90;;;;;;5033124;28;20084;-74
2022/06/17 08:26:04;;;;;;;29.30;26.98;;;24.70;99.90;;;;;;5036533;28;20076;-73
2022/06/17 08:28:31;;;;;;;28.50;26.88;;;25.00;99.90;;;;;;5040933;28;20054;-74
2022/06/17 08:30:58;;;;;;;27.60;26.10;;;24.70;99.90;;;;;;5039904;28;20467;-74
2022/06/17 08:33:28;;;;;;;27.58;26.08;;;24.80;99.90;;;;;;5039466;28;20041;-73
2022/06/17 08:36:15;;;;;;;29.30;27.40;;;24.50;99.80;;;;;;5042393;28;20128;-73
2022/06/17 08:38:48;;;;;;;27.75;26.25;;;24.40;99.90;;;;;;5043560;28;20045;-74
2022/06/17 08:41:25;;;;;;;26.30;24.90;;;24.10;99.90;;;;;;5062919;28;20052;-75
2022/06/17 08:43:58;;;;;;;27.05;25.50;;;23.60;99.90;;;;;;5039968;28;20080;-74
2022/06/17 08:46:34;;;;;;;28.10;26.50;;;23.20;99.90;;;;;;5042914;28;20445;-74
2022/06/17 08:49:35;;;;;;;27.33;25.77;;;23.10;99.90;;;;;;5038900;28;20293;-75
2022/06/17 08:52:11;;;;;;;26.50;24.95;;;23.90;99.90;;;;;;5043420;28;20072;-74
2022/06/17 08:54:53;;;;;;;28.88;27.17;;;24.70;99.90;;;;;;5042170;28;20052;-73
2022/06/17 08:57:51;;;;;;;27.17;25.77;;;24.80;99.30;;;;;;5028679;28;20041;-73
2022/06/17 09:00:33;;;;;;;27.25;25.85;;;23.60;99.90;;;;;;5038448;28;20049;-73
2022/06/17 09:03:24;;;;;;;28.17;26.70;;;24.20;99.90;;;;;;5059540;28;20098;-75
2022/06/17 09:06:30;;;;;;;28.20;26.50;;;24.90;99.90;;;;;;5030497;28;20053;-73
2022/06/17 09:09:21;;;;;;;28.60;27.08;;;25.00;99.20;;;;;;5044188;28;20147;-74
2022/06/17 09:12:25;;;;;;;27.33;25.83;;;25.00;97.90;;;;;;5044013;28;20534;-73
2022/06/17 09:14:57;;;;;;;27.33;25.75;;;25.40;99.10;;;;;;5043230;28;20079;-74
2022/06/17 09:17:45;;;;;;;27.75;26.25;;;25.50;98.80;;;;;;5042415;28;20115;-75
2022/06/17 09:20:18;;;;;;;26.90;25.48;;;25.70;98.30;;;;;;5042317;28;20292;-74
2022/06/17 09:22:51;;;;;;;27.67;26.27;;;25.50;97.00;;;;;;5043190;28;20045;-74
2022/06/17 09:25:26;;;;;;;27.08;25.67;;;25.50;96.90;;;;;;5042516;28;20044;-74
2022/06/17 09:27:55;;;;;;;;;;;25.40;95.90;;;;;;5042786;28;20045;-73
2022/06/17 09:30:26;;;;;;;28.17;26.67;;;25.40;95.80;;;;;;5042146;28;19968;-75
2022/06/17 09:33:05;;;;;;;27.27;25.90;;;25.60;97.80;;;;;;5026103;28;20446;-74
2022/06/17 09:35:48;;;;;;;28.17;26.58;;;25.70;96.30;;;;;;5043721;28;20316;-75
2022/06/17 09:38:27;;;;;;;28.80;27.25;;;25.80;95.60;;;;;;5039123;28;20076;-74
2022/06/17 09:41:18;;;;;;;28.00;26.58;;;25.60;97.80;;;;;;5041660;28;20354;-75
2022/06/17 09:43:56;;;;;;;26.98;25.50;;;25.50;96.00;;;;;;5042321;28;20053;-75
2022/06/17 09:46:38;;;;;;;27.35;25.85;;;25.70;97.20;;;;;;5022544;28;20064;-73
2022/06/17 09:49:14;;;;;;;28.33;26.65;;;25.90;95.20;;;;;;5023534;28;20050;-74
2022/06/17 09:51:51;;;;;;;26.70;25.40;;;26.10;95.40;;;;;;5021327;28;20076;-74
2022/06/17 09:54:27;;;;;;;28.80;27.40;;;25.90;94.90;;;;;;5043783;28;20082;-74
2022/06/17 09:57:06;;;;;;;26.75;25.35;;;26.00;95.90;;;;;;5056537;28;20049;-74
2022/06/17 09:59:40;;;;;;;27.50;26.00;;;25.70;94.80;;;;;;5042029;28;20522;-75
2022/06/17 10:02:27;;;;;;;29.00;27.45;;;25.60;95.40;;;;;;5043775;28;20451;-75
2022/06/17 10:04:56;;;;;;;28.10;26.60;;;25.50;94.60;;;;;;5056378;28;20124;-74
2022/06/17 10:07:29;;;;;;;28.10;26.70;;;25.60;94.90;;;;;;5039752;28;20063;-73
2022/06/17 10:10:09;;;;;;;27.40;25.90;;;25.50;93.40;;;;;;5043451;28;20049;-77
2022/06/17 10:13:00;;;;;;;27.02;25.52;;;25.70;93.60;;;;;;5044460;28;20041;-77
2022/06/17 10:15:33;;;;;;;26.15;24.85;;;25.80;93.80;;;;;;5043232;28;20041;-77
2022/06/17 10:18:43;;;;;;;27.80;26.35;;;25.70;92.90;;;;;;5033552;28;20083;-77
2022/06/17 10:21:48;;;;;;;30.05;28.55;;;25.50;93.30;;;;;;5042369;28;20052;-78
2022/06/17 10:24:24;;;;;;;28.52;27.02;;;25.60;93.80;;;;;;5016377;28;20151;-77
2022/06/17 10:27:12;;;;;;;28.70;27.20;;;25.90;92.50;;;;;;5048403;28;20526;-77
2022/06/17 10:30:03;;;;;;;29.08;27.48;;;26.30;92.60;;;;;;5054161;28;20056;-77
2022/06/17 10:32:34;;;;;;;29.95;28.25;;;26.70;93.40;;;;;;5026416;28;20128;-78
2022/06/17 10:35:03;;;;;;;29.10;27.58;;;27.00;92.80;;;;;;5044727;28;20315;-77
2022/06/17 10:37:34;;;;;;;30.20;28.60;;;27.30;94.00;;;;;;5044081;28;20103;-77
2022/06/17 10:40:23;;;;;;;29.58;27.98;;;27.10;93.20;;;;;;5058677;28;20060;-76
2022/06/17 10:42:53;;;;;;;31.35;29.65;;;26.80;93.60;;;;;;5063144;28;20074;-77
2022/06/17 10:45:20;;;;;;;30.10;28.50;;;27.20;94.70;;;;;;5026750;28;20072;-76
2022/06/17 10:48:33;;;;;;;28.63;27.13;;;27.40;93.90;;;;;;5044853;28;20081;-76
2022/06/17 10:51:04;;;;;;;29.48;27.98;;;27.50;92.70;;;;;;4998835;28;20738;-75
2022/06/17 10:53:52;;;;;;;30.95;29.30;;;26.70;92.90;;;;;;5045490;28;20045;-76
2022/06/17 10:56:27;;;;;;;29.60;28.20;;;26.40;92.70;;;;;;5038297;28;20049;-77
2022/06/17 10:58:55;;;;;;;29.67;28.17;;;26.40;93.30;;;;;;5027116;28;20166;-77
2022/06/17 11:01:22;;;;;;;30.42;28.92;;;26.30;93.70;;;;;;5024463;28;20045;-77
2022/06/17 11:03:50;;;;;;;31.23;29.40;;;26.50;92.90;;;;;;5045641;28;20055;-77
2022/06/17 11:06:25;;;;;;;30.67;29.13;;;26.90;93.10;;;;;;5042291;28;20045;-77
2022/06/17 11:08:56;;;;;;;31.27;29.67;;;27.00;94.20;;;;;;5043830;28;20103;-77
2022/06/17 11:14:30;;;;;;;30.92;29.42;;;26.90;91.50;;;;;;5040597;28;20136;-77
2022/06/17 11:16:58;;;;;;;30.83;29.27;;;26.80;91.40;;;;;;5043616;28;20049;-77
2022/06/17 11:19:26;;;;;;;30.77;29.27;;;27.10;91.10;;;;;;5042633;28;20044;-77
2022/06/17 11:22:00;;;;;;;30.52;28.83;;;27.20;91.50;;;;;;5041863;28;20495;-77
2022/06/17 11:24:35;;;;;;;31.53;29.90;;;27.40;90.30;;;;;;5040129;28;20801;-77
2022/06/17 11:27:14;;;;;;;30.88;29.38;;;27.10;87.40;;;;;;5023580;28;20071;-77
2022/06/17 11:29:46;;;;;;;29.08;27.67;;;27.10;87.20;;;;;;5024967;28;20045;-77
2022/06/17 11:32:27;;;;;;;29.25;27.85;;;27.00;88.30;;;;;;5023541;28;20071;-77
2022/06/17 11:34:59;;;;;;;30.15;28.48;;;26.90;87.50;;;;;;5022085;28;20052;-73
2022/06/17 11:37:35;;;;;;;31.25;29.63;;;27.10;90.10;;;;;;5041504;28;20049;-76
2022/06/17 11:40:20;;;;;;;31.67;30.08;;;27.30;89.20;;;;;;5052985;28;20344;-76
2022/06/17 11:42:59;;;;;;;29.42;27.90;;;27.60;89.50;;;;;;5045716;28;20327;-76
2022/06/17 11:45:41;;;;;;;29.80;28.23;;;28.00;89.30;;;;;;5042901;28;20045;-77
2022/06/17 11:48:15;;;;;;;29.30;27.70;;;28.20;90.40;;;;;;5043462;28;20049;-76
2022/06/17 11:51:10;;;;;;;29.83;28.17;;;28.00;90.70;;;;;;5048497;28;20519;-76
2022/06/17 11:53:53;;;;;;;30.27;28.67;;;27.90;90.00;;;;;;5045718;28;20056;-76
2022/06/17 11:56:46;;;;;;;31.17;29.50;;;27.70;90.70;;;;;;5046859;28;20045;-76
2022/06/17 11:59:17;;;;;;;30.20;28.60;;;27.60;90.40;;;;;;5038259;28;20156;-76
2022/06/17 12:02:04;;;;;;;31.15;29.55;;;27.30;90.70;;;;;;5019982;28;20443;-76
2022/06/17 12:05:03;;;;;;;31.98;30.33;;;27.30;91.70;;;;;;5038499;28;20107;-76
2022/06/17 12:07:49;;;;;;;31.08;29.48;;;27.50;91.80;;;;;;5035529;28;20225;-76
2022/06/17 12:10:35;;;;;;;31.35;29.63;;;27.40;92.00;;;;;;5023687;28;20049;-77
2022/06/17 12:13:11;;;;;;;29.13;27.50;;;27.60;91.90;;;;;;5042089;28;20072;-77
2022/06/17 12:15:45;;;;;;;31.10;29.50;;;27.40;90.60;;;;;;5044959;28;20260;-77
2022/06/17 12:18:34;;;;;;;31.00;29.08;;;27.40;89.80;;;;;;5028830;28;20523;-77
2022/06/17 12:21:04;;;;;;;30.70;29.00;;;27.20;88.40;;;;;;5044156;28;20191;-77
2022/06/17 12:23:54;;;;;;;30.63;29.02;;;27.20;87.20;;;;;;5044060;28;20495;-76
2022/06/17 12:26:50;;;;;;;29.65;28.15;;;27.10;86.50;;;;;;5036805;28;20438;-76
2022/06/17 12:29:33;;;;;;;30.40;28.90;;;27.10;87.90;;;;;;5027098;28;20073;-77
2022/06/17 12:32:09;;;;;;;32.33;30.73;;;27.20;85.30;;;;;;5045424;28;20060;-77
2022/06/17 12:35:02;;;;;;;32.88;30.98;;;27.20;89.80;;;;;;5027901;28;20053;-76
2022/06/17 12:37:46;;;;;;;34.25;32.20;;;27.30;87.90;;;;;;5034526;28;20516;-76
2022/06/17 12:40:22;;;;;;;34.35;32.58;;;27.40;89.30;;;;;;5042628;28;20095;-76
2022/06/17 12:43:21;;;;;;;34.65;32.85;;;27.40;87.00;;;;;;5045184;28;20061;-77
2022/06/17 12:46:12;;;;;;;35.22;33.33;;;27.00;87.00;;;;;;5028231;28;20057;-76
2022/06/17 12:48:39;;;;;;;34.88;33.08;;;26.90;88.20;;;;;;5043565;28;20135;-76
2022/06/17 12:54:39;;;;;;;32.70;30.95;;;27.00;88.60;;;;;;5025784;28;20041;-76
2022/06/17 12:57:16;;;;;;;33.28;31.48;;;27.00;88.90;;;;;;5038536;28;20098;-76
2022/06/17 13:00:04;;;;;;;34.97;33.08;;;27.00;88.50;;;;;;5035862;28;20131;-76
2022/06/17 13:02:40;;;;;;;35.20;33.08;;;27.20;87.10;;;;;;5022581;28;20067;-76
2022/06/17 13:05:23;;;;;;;35.72;33.72;;;27.20;87.50;;;;;;5032227;28;20061;-76
2022/06/17 13:07:56;;;;;;;33.28;31.50;;;27.20;88.20;;;;;;5021516;28;20053;-76
2022/06/17 13:10:46;;;;;;;34.40;32.47;;;27.30;89.00;;;;;;5005780;28;20440;-76
2022/06/17 13:13:33;;;;;;;33.45;31.58;;;27.20;91.20;;;;;;5003100;28;20053;-76
2022/06/17 13:16:26;;;;;;;33.55;31.65;;;27.20;90.00;;;;;;5022303;28;20095;-77
2022/06/17 13:19:19;;;;;;;33.00;31.10;;;27.30;89.40;;;;;;5003958;28;20158;-76
2022/06/17 13:22:09;;;;;;;33.10;31.25;;;27.10;90.20;;;;;;5030546;28;20129;-76
2022/06/17 13:24:49;;;;;;;33.20;31.40;;;27.00;90.00;;;;;;5028820;28;20550;-76
2022/06/17 13:27:32;;;;;;;32.72;30.83;;;26.80;90.90;;;;;;5023505;28;20095;-76